Time;durP1;ratioP1;P1;durP2;ratioP2;P2;SDS_P1;SDS_P2;PMS_P1;PMS_P2;Temp;Humidity;BMP_temperature;BMP_pressure;BME280_temperature;BME280_humidity;BME280_pressure;Samples;Min_cycle;Max_cycle;Signal;HPM_P1;HPM_P2
2024/03/29 00:02:12;;;;;;;12.95;7.25;;;;;;;6.88;100.00;98653.81;4963427;28;20145;-69
2024/03/29 00:04:38;;;;;;;12.90;6.20;;;;;;;6.85;100.00;98660.25;4995024;28;20050;-69
2024/03/29 00:07:05;;;;;;;12.87;6.87;;;;;;;6.89;100.00;98656.31;4972103;28;20294;-69
2024/03/29 00:09:30;;;;;;;12.80;6.93;;;;;;;6.92;100.00;98655.16;4924712;28;20137;-70
2024/03/29 00:11:56;;;;;;;14.75;7.05;;;;;;;6.95;100.00;98648.75;4940588;28;20405;-69
2024/03/29 00:14:26;;;;;;;13.93;6.63;;;;;;;6.97;100.00;98649.38;4955946;28;20149;-69
2024/03/29 00:16:52;;;;;;;11.07;6.00;;;;;;;7.00;100.00;98652.53;4989575;28;20050;-69
2024/03/29 00:19:17;;;;;;;10.07;5.90;;;;;;;6.99;100.00;98639.50;4962351;28;20488;-69
2024/03/29 00:21:43;;;;;;;11.60;6.30;;;;;;;6.95;100.00;98636.34;4978763;28;20038;-69
2024/03/29 00:24:09;;;;;;;15.60;6.35;;;;;;;6.95;100.00;98638.19;4994604;28;20081;-69
2024/03/29 00:26:35;;;;;;;11.57;6.38;;;;;;;6.90;100.00;98641.31;4978390;28;20067;-69
2024/03/29 00:29:02;;;;;;;13.75;7.40;;;;;;;6.86;100.00;98630.22;5010255;28;20081;-69
2024/03/29 00:31:28;;;;;;;16.23;6.65;;;;;;;6.93;100.00;98640.16;4936632;29;20055;-69
2024/03/29 00:33:54;;;;;;;15.70;6.72;;;;;;;6.90;100.00;98628.91;4936401;29;20399;-69
2024/03/29 00:36:21;;;;;;;16.27;7.05;;;;;;;7.00;100.00;98620.88;4952089;28;20054;-69
2024/03/29 00:38:50;;;;;;;13.10;5.95;;;;;;;6.86;100.00;98622.31;4948213;28;20067;-69
2024/03/29 00:41:17;;;;;;;14.88;7.00;;;;;;;6.82;100.00;98623.63;4917353;29;20074;-69
2024/03/29 00:43:43;;;;;;;18.13;6.88;;;;;;;6.78;100.00;98627.56;4955633;28;20058;-69
2024/03/29 00:46:09;;;;;;;14.05;7.25;;;;;;;6.81;100.00;98610.59;4923628;28;20051;-69
2024/03/29 00:48:37;;;;;;;14.40;7.65;;;;;;;6.75;100.00;98613.84;4939280;28;20042;-69
2024/03/29 00:51:04;;;;;;;17.92;7.40;;;;;;;6.80;100.00;98614.19;4955214;28;20076;-69
2024/03/29 00:53:30;;;;;;;15.25;7.50;;;;;;;6.78;100.00;98606.44;4939394;28;20594;-69
2024/03/29 00:55:56;;;;;;;12.52;6.72;;;;;;;6.83;100.00;98604.16;4955174;28;20149;-69
2024/03/29 00:58:22;;;;;;;17.55;7.50;;;;;;;6.78;100.00;98603.81;4971394;28;20894;-70
2024/03/29 01:00:48;;;;;;;16.63;7.38;;;;;;;6.80;100.00;98598.38;4955183;28;20148;-69
2024/03/29 01:03:13;;;;;;;12.90;6.93;;;;;;;6.83;100.00;98600.69;4994211;28;20154;-69
2024/03/29 01:05:39;;;;;;;14.45;6.97;;;;;;;6.82;100.00;98588.50;4997098;28;20065;-69
2024/03/29 01:08:05;;;;;;;17.60;7.47;;;;;;;6.86;100.00;98577.44;4965300;28;20037;-71
2024/03/29 01:10:31;;;;;;;14.77;7.53;;;;;;;6.74;100.00;98599.84;4997418;28;20064;-69
2024/03/29 01:12:58;;;;;;;15.37;7.83;;;;;;;6.80;100.00;98586.00;5013537;28;20059;-69
2024/03/29 01:15:25;;;;;;;15.35;7.32;;;;;;;6.77;100.00;98585.50;5003327;28;20121;-69
2024/03/29 01:17:59;;;;;;;16.40;7.70;;;;;;;6.72;100.00;98578.06;5006660;28;20084;-69
2024/03/29 01:20:25;;;;;;;13.98;7.80;;;;;;;6.78;100.00;98584.53;5020379;28;20076;-68
2024/03/29 01:22:50;;;;;;;12.70;7.38;;;;;;;6.84;100.00;98571.50;5036647;28;20062;-70
2024/03/29 01:25:17;;;;;;;16.50;7.78;;;;;;;6.80;100.00;98569.34;5036710;28;20044;-69
2024/03/29 01:27:44;;;;;;;15.00;7.45;;;;;;;6.77;100.00;98559.94;5052454;28;20049;-69
2024/03/29 01:30:11;;;;;;;16.70;7.50;;;;;;;6.77;100.00;98567.84;5052586;28;20052;-69
2024/03/29 01:32:37;;;;;;;16.80;8.25;;;;;;;6.81;100.00;98558.63;5050652;28;20110;-69
2024/03/29 01:35:04;;;;;;;17.40;7.88;;;;;;;6.84;100.00;98558.31;5050872;28;20074;-72
2024/03/29 01:37:31;;;;;;;17.73;8.02;;;;;;;6.83;100.00;98551.38;5001519;28;20048;-69
2024/03/29 01:39:57;;;;;;;13.57;7.47;;;;;;;6.90;100.00;98552.38;5033556;28;20040;-69
2024/03/29 01:42:22;;;;;;;13.85;7.65;;;;;;;6.95;100.00;98553.72;5051291;28;20053;-70
2024/03/29 01:44:49;;;;;;;14.73;8.07;;;;;;;6.92;100.00;98548.78;5033631;28;20048;-69
2024/03/29 01:47:17;;;;;;;14.52;7.53;;;;;;;7.08;100.00;98551.44;5034041;28;20049;-70
2024/03/29 01:49:45;;;;;;;13.30;7.25;;;;;;;7.11;100.00;98540.53;5033935;28;20391;-69
2024/03/29 01:52:13;;;;;;;13.75;7.18;;;;;;;7.15;100.00;98544.53;5033688;28;20045;-69
2024/03/29 01:54:39;;;;;;;17.05;8.63;;;;;;;7.02;100.00;98536.25;5000905;28;20173;-69
2024/03/29 01:57:05;;;;;;;16.67;7.40;;;;;;;7.08;100.00;98527.66;5033819;28;20049;-71
2024/03/29 01:59:31;;;;;;;13.90;6.95;;;;;;;7.08;100.00;98531.16;5017253;28;20458;-69
2024/03/29 02:01:58;;;;;;;15.85;7.82;;;;;;;7.18;100.00;98531.81;5033724;28;20135;-70
2024/03/29 02:04:24;;;;;;;12.73;7.90;;;;;;;7.08;100.00;98525.03;5052542;28;20475;-69
2024/03/29 02:06:50;;;;;;;17.52;8.65;;;;;;;6.98;100.00;98511.16;5019302;28;20052;-70
2024/03/29 02:09:16;;;;;;;17.23;8.65;;;;;;;6.99;100.00;98512.81;5052292;28;20075;-71
2024/03/29 02:11:42;;;;;;;16.95;8.85;;;;;;;6.93;100.00;98503.75;5035949;28;20131;-70
2024/03/29 02:14:08;;;;;;;17.42;7.93;;;;;;;7.02;100.00;98499.28;5002832;28;20048;-71
2024/03/29 02:16:34;;;;;;;16.77;8.23;;;;;;;7.04;100.00;98502.59;5019759;28;20048;-70
2024/03/29 02:19:00;;;;;;;17.98;8.40;;;;;;;7.01;100.00;98495.00;5035819;28;20052;-70
2024/03/29 02:21:27;;;;;;;15.43;7.55;;;;;;;7.01;100.00;98485.28;5052279;28;20418;-70
2024/03/29 02:24:16;;;;;;;17.00;7.15;;;;;;;7.21;100.00;98494.50;5019166;28;20059;-70
2024/03/29 02:26:44;;;;;;;16.33;7.80;;;;;;;7.06;100.00;98487.44;5003752;28;20041;-70
2024/03/29 02:29:12;;;;;;;16.55;8.05;;;;;;;7.04;100.00;98484.13;5016591;28;20053;-70
2024/03/29 02:31:38;;;;;;;16.67;8.18;;;;;;;7.04;100.00;98484.97;5016051;28;20151;-70
2024/03/29 02:34:07;;;;;;;19.27;8.65;;;;;;;7.03;100.00;98490.41;5032730;28;20124;-70
2024/03/29 02:36:33;;;;;;;19.08;7.78;;;;;;;7.01;100.00;98489.72;5015973;28;20049;-71
2024/03/29 02:38:59;;;;;;;18.35;7.60;;;;;;;7.01;100.00;98487.09;4983041;28;20048;-70
2024/03/29 02:41:26;;;;;;;18.67;8.30;;;;;;;7.04;100.00;98484.13;5015683;28;20041;-69
2024/03/29 02:43:53;;;;;;;14.52;8.50;;;;;;;7.14;100.00;98479.50;5015814;28;20068;-70
2024/03/29 02:46:19;;;;;;;14.15;7.70;;;;;;;7.11;100.00;98474.53;5031752;28;20064;-70
2024/03/29 02:48:45;;;;;;;17.00;8.38;;;;;;;7.14;100.00;98485.59;5016660;28;20500;-70
2024/03/29 02:51:11;;;;;;;18.40;8.10;;;;;;;7.08;100.00;98480.16;5000076;28;20144;-71
2024/03/29 02:53:37;;;;;;;18.45;8.02;;;;;;;7.11;100.00;98474.53;4987112;28;20491;-71
2024/03/29 02:56:07;;;;;;;13.35;7.25;;;;;;;7.16;100.00;98464.31;5036370;28;20044;-71
2024/03/29 02:58:34;;;;;;;15.38;7.82;;;;;;;7.13;100.00;98469.94;5019713;28;20040;-71
2024/03/29 03:01:08;;;;;;;14.77;7.78;;;;;;;7.21;100.00;98459.38;4992436;28;20074;-71
2024/03/29 03:03:35;;;;;;;16.00;7.57;;;;;;;7.22;100.00;98450.47;4961060;28;20082;-65
2024/03/29 03:06:02;;;;;;;15.98;8.73;;;;;;;7.17;100.00;98455.41;4977239;28;20116;-66
2024/03/29 03:11:14;;;;;;;13.50;7.20;;;;;;;7.15;100.00;98446.84;4993335;28;20050;-65
2024/03/29 03:13:40;;;;;;;14.80;6.93;;;;;;;7.17;100.00;98450.13;4976604;28;20072;-66
2024/03/29 03:16:06;;;;;;;14.45;7.38;;;;;;;7.17;100.00;98440.41;4976929;28;20392;-66
2024/03/29 03:18:32;;;;;;;17.95;7.43;;;;;;;7.11;100.00;98433.13;4995347;28;20145;-65
2024/03/29 03:20:59;;;;;;;17.63;7.75;;;;;;;7.12;100.00;98433.97;4947887;28;20052;-65
2024/03/29 03:23:25;;;;;;;14.40;7.72;;;;;;;7.05;100.00;98433.81;4979680;28;20554;-68
2024/03/29 03:25:55;;;;;;;15.90;9.00;;;;;;;7.11;100.00;98437.59;5012595;28;20136;-69
2024/03/29 03:28:21;;;;;;;14.63;7.80;;;;;;;7.03;100.00;98435.78;4996922;28;20050;-69
2024/03/29 03:30:48;;;;;;;16.23;7.63;;;;;;;7.10;100.00;98425.38;5012235;28;20069;-69
2024/03/29 03:33:15;;;;;;;18.00;8.27;;;;;;;6.99;100.00;98428.34;5032642;28;20068;-69
2024/03/29 03:35:41;;;;;;;14.93;6.68;;;;;;;7.08;100.00;98425.56;5015910;28;20046;-71
2024/03/29 03:38:08;;;;;;;14.52;7.10;;;;;;;7.09;100.00;98429.84;5011424;28;20043;-68
2024/03/29 03:40:34;;;;;;;14.70;7.20;;;;;;;7.07;100.00;98416.00;5042809;28;20112;-68
2024/03/29 03:43:02;;;;;;;16.17;7.35;;;;;;;7.20;100.00;98420.75;5032375;28;20168;-68
2024/03/29 03:45:28;;;;;;;16.20;7.65;;;;;;;7.19;100.00;98419.09;5015837;28;20041;-70
2024/03/29 03:47:54;;;;;;;14.23;7.05;;;;;;;7.33;100.00;98418.44;5032908;28;20393;-69
2024/03/29 03:50:19;;;;;;;14.75;7.72;;;;;;;7.28;100.00;98429.50;5015950;28;20033;-70
2024/03/29 03:52:46;;;;;;;14.85;7.07;;;;;;;7.39;100.00;98426.53;5032342;28;20511;-71
2024/03/29 03:55:11;;;;;;;17.55;7.78;;;;;;;7.28;100.00;98426.84;5033070;28;20049;-69
2024/03/29 03:57:38;;;;;;;13.88;6.88;;;;;;;7.36;100.00;98428.66;5000390;28;20208;-67
2024/03/29 04:00:04;;;;;;;10.75;6.50;;;;;;;7.50;100.00;98412.97;5002045;28;20112;-70
2024/03/29 04:02:38;;;;;;;10.75;6.75;;;;;;;7.35;100.00;98403.25;5032569;28;20587;-69
2024/03/29 04:05:04;;;;;;;11.73;6.13;;;;;;;7.46;100.00;98409.00;5030720;28;20085;-69
2024/03/29 04:07:31;;;;;;;17.17;7.03;;;;;;;7.40;100.00;98396.47;4983453;28;20049;-70
2024/03/29 04:09:56;;;;;;;13.25;7.30;;;;;;;7.35;100.00;98397.97;5032419;28;20123;-69
2024/03/29 04:12:22;;;;;;;16.70;6.93;;;;;;;7.36;100.00;98389.06;5032303;28;20041;-71
2024/03/29 04:14:49;;;;;;;10.85;6.65;;;;;;;7.28;100.00;98391.69;4980729;28;20061;-68
2024/03/29 04:17:14;;;;;;;15.48;6.47;;;;;;;7.38;100.00;98384.44;4979417;28;20046;-70
2024/03/29 04:19:40;;;;;;;9.82;6.00;;;;;;;7.58;100.00;98391.78;4997478;28;20047;-69
2024/03/29 04:22:06;;;;;;;14.07;6.75;;;;;;;7.66;100.00;98390.94;4982234;28;20140;-69
2024/03/29 04:24:33;;;;;;;14.35;7.13;;;;;;;7.70;100.00;98393.09;5014599;28;20041;-69
2024/03/29 04:26:59;;;;;;;11.48;6.38;;;;;;;7.81;100.00;98383.97;4998551;28;20080;-70
2024/03/29 04:29:25;;;;;;;11.80;6.28;;;;;;;7.85;100.00;98382.63;5015061;28;20049;-71
2024/03/29 04:31:51;;;;;;;12.75;6.22;;;;;;;7.79;100.00;98380.66;4998501;28;20076;-69
2024/03/29 04:34:17;;;;;;;13.82;6.60;;;;;;;7.75;100.00;98368.81;5014560;28;20123;-70
2024/03/29 04:36:42;;;;;;;12.75;6.68;;;;;;;7.72;100.00;98350.66;5014495;28;20065;-70
2024/03/29 04:39:08;;;;;;;18.05;6.22;;;;;;;7.72;100.00;98361.22;5015161;28;20510;-69
2024/03/29 04:41:34;;;;;;;12.23;5.82;;;;;;;7.77;100.00;98361.50;5014713;28;20045;-68
2024/03/29 04:44:02;;;;;;;15.27;6.47;;;;;;;7.68;100.00;98341.41;5016001;28;20049;-68
2024/03/29 04:46:31;;;;;;;14.88;6.00;;;;;;;7.76;100.00;98344.03;5031673;28;20037;-69
2024/03/29 04:48:57;;;;;;;13.57;6.00;;;;;;;7.68;100.00;98325.56;5013849;28;20029;-70
2024/03/29 04:51:23;;;;;;;11.15;5.82;;;;;;;7.74;100.00;98336.25;5030156;28;20083;-68
2024/03/29 04:53:49;;;;;;;9.30;5.50;;;;;;;7.83;100.00;98323.81;5030378;28;20053;-69
2024/03/29 04:56:15;;;;;;;11.18;6.28;;;;;;;7.78;100.00;98340.19;5031875;28;20045;-69
2024/03/29 04:58:42;;;;;;;13.07;5.22;;;;;;;7.77;100.00;98335.09;5013790;28;20074;-68
2024/03/29 05:01:07;;;;;;;11.25;5.85;;;;;;;7.69;100.00;98340.41;5030880;28;20052;-68
2024/03/29 05:03:33;;;;;;;10.80;5.63;;;;;;;7.75;100.00;98308.84;5031357;28;20455;-68
2024/03/29 05:05:59;;;;;;;9.98;5.55;;;;;;;7.65;100.00;98295.03;5031592;28;20037;-68
2024/03/29 05:08:25;;;;;;;16.02;6.55;;;;;;;7.75;100.00;98303.53;5015048;28;20095;-68
2024/03/29 05:10:51;;;;;;;8.02;4.65;;;;;;;7.90;100.00;98288.59;5015809;28;20057;-68
2024/03/29 05:13:21;;;;;;;8.93;4.82;;;;;;;8.20;100.00;98305.44;5031552;28;20414;-68
2024/03/29 05:15:47;;;;;;;10.32;4.75;;;;;;;8.30;100.00;98300.78;5031449;28;20041;-68
2024/03/29 05:18:14;;;;;;;13.25;4.85;;;;;;;8.16;100.00;98298.88;5034627;28;20052;-68
2024/03/29 05:20:41;;;;;;;8.05;5.05;;;;;;;8.29;100.00;98293.84;5050425;28;20361;-68
2024/03/29 05:23:07;;;;;;;9.77;5.30;;;;;;;8.35;100.00;98293.97;5033804;28;20072;-68
2024/03/29 05:25:33;;;;;;;19.13;4.60;;;;;;;8.35;100.00;98309.84;5000704;28;20045;-68
2024/03/29 05:27:59;;;;;;;9.80;5.00;;;;;;;8.24;100.00;98312.06;5049992;28;20059;-68
2024/03/29 05:30:25;;;;;;;9.02;4.75;;;;;;;8.16;100.00;98318.19;5033614;28;20045;-69
2024/03/29 05:32:50;;;;;;;11.57;4.72;;;;;;;8.16;100.00;98309.44;5039118;28;20452;-70
2024/03/29 05:35:16;;;;;;;10.57;5.30;;;;;;;8.12;100.00;98316.06;5026435;28;20052;-71
2024/03/29 05:37:46;;;;;;;11.25;5.22;;;;;;;8.05;100.00;98320.41;5060759;28;20131;-70
2024/03/29 05:40:12;;;;;;;12.57;4.93;;;;;;;7.92;100.00;98338.63;5042751;28;20468;-70
2024/03/29 05:42:38;;;;;;;9.00;5.40;;;;;;;8.19;100.00;98335.53;5060221;28;20078;-70
2024/03/29 05:45:05;;;;;;;10.60;5.18;;;;;;;8.21;100.00;98322.97;5030531;28;20135;-69
2024/03/29 05:47:32;;;;;;;12.50;5.18;;;;;;;8.26;100.00;98324.13;5059192;28;20513;-68
2024/03/29 05:49:58;;;;;;;10.77;6.40;;;;;;;8.09;100.00;98308.47;5033584;28;20076;-69
2024/03/29 05:52:24;;;;;;;15.23;5.18;;;;;;;8.31;100.00;98300.63;5027215;28;20040;-68
2024/03/29 05:54:50;;;;;;;13.57;5.25;;;;;;;8.24;100.00;98318.16;5038738;28;20037;-69
2024/03/29 05:57:16;;;;;;;9.30;4.43;;;;;;;8.38;100.00;98313.94;5059254;28;20453;-72
2024/03/29 05:59:42;;;;;;;7.90;4.32;;;;;;;8.50;100.00;98328.41;5043401;28;20035;-69
2024/03/29 06:02:08;;;;;;;10.35;4.13;;;;;;;8.51;100.00;98315.00;5013930;28;20506;-70
2024/03/29 06:04:33;;;;;;;8.95;4.68;;;;;;;8.68;100.00;98302.47;5030560;28;20499;-68
2024/03/29 06:07:00;;;;;;;8.85;4.15;;;;;;;8.89;100.00;98301.81;5045495;28;20048;-69
2024/03/29 06:09:25;;;;;;;9.50;3.95;;;;;;;9.00;100.00;98307.47;5047692;28;20098;-69
2024/03/29 06:11:53;;;;;;;7.97;4.72;;;;;;;9.01;100.00;98303.00;5041827;28;20037;-70
2024/03/29 06:17:24;;;;;;;9.32;4.40;;;;;;;9.21;100.00;98299.63;5043431;28;20468;-69
2024/03/29 06:19:56;;;;;;;9.48;4.78;;;;;;;9.22;100.00;98311.88;5043967;28;20060;-68
2024/03/29 06:22:25;;;;;;;8.23;4.40;;;;;;;9.07;100.00;98311.03;5039464;28;20483;-69
2024/03/29 06:24:52;;;;;;;11.75;5.15;;;;;;;9.05;100.00;98310.41;5008653;28;20399;-68
2024/03/29 06:27:20;;;;;;;6.18;4.00;;;;;;;9.26;100.00;98305.22;5044748;28;20053;-69
2024/03/29 06:29:47;;;;;;;9.38;4.85;;;;;;;9.20;100.00;98313.88;5044079;28;20520;-67
2024/03/29 06:32:13;;;;;;;14.68;5.07;;;;;;;9.14;100.00;98319.06;5046139;28;20046;-69
2024/03/29 06:34:39;;;;;;;8.80;4.88;;;;;;;9.19;100.00;98330.78;5027794;28;20064;-68
2024/03/29 06:37:05;;;;;;;12.88;4.15;;;;;;;9.34;100.00;98301.66;4980744;28;20050;-68
2024/03/29 06:39:31;;;;;;;12.10;4.07;;;;;;;9.33;100.00;98318.56;5023236;28;20104;-68
2024/03/29 06:41:56;;;;;;;7.47;3.70;;;;;;;9.41;100.00;98315.81;5022816;28;20167;-68
2024/03/29 06:44:22;;;;;;;11.98;4.22;;;;;;;9.52;100.00;98313.53;5021037;28;20135;-68
2024/03/29 06:46:49;;;;;;;11.93;4.60;;;;;;;9.20;100.00;98313.88;5021453;28;20045;-71
2024/03/29 06:49:16;;;;;;;10.57;4.53;;;;;;;9.28;100.00;98312.97;5014228;28;20159;-68
2024/03/29 06:51:43;;;;;;;8.63;4.20;;;;;;;9.31;100.00;98294.91;5022493;28;20053;-68
2024/03/29 06:54:09;;;;;;;9.70;3.97;;;;;;;9.45;100.00;98299.38;5013517;28;20542;-68
2024/03/29 06:56:35;;;;;;;8.90;4.82;;;;;;;9.42;100.00;98299.75;4999669;28;20148;-68
2024/03/29 06:59:01;;;;;;;12.32;4.60;;;;;;;9.47;100.00;98288.59;5016308;28;20491;-68
2024/03/29 07:01:27;;;;;;;9.00;4.20;;;;;;;9.62;100.00;98276.97;4999762;28;20041;-68
2024/03/29 07:03:52;;;;;;;5.45;3.30;;;;;;;9.95;100.00;98285.28;5032768;28;20056;-68
2024/03/29 07:06:20;;;;;;;7.97;3.95;;;;;;;10.07;100.00;98289.97;4983614;28;20110;-68
2024/03/29 07:08:47;;;;;;;6.00;3.85;;;;;;;10.07;100.00;98289.16;5061870;28;20141;-68
2024/03/29 07:11:12;;;;;;;17.55;4.60;;;;;;;9.95;100.00;98280.81;5053209;28;20425;-69
2024/03/29 07:13:38;;;;;;;10.70;4.35;;;;;;;9.86;100.00;98283.78;5054123;28;20180;-68
2024/03/29 07:16:04;;;;;;;8.93;4.45;;;;;;;9.80;100.00;98284.50;5053180;28;20055;-69
2024/03/29 07:18:30;;;;;;;14.27;5.15;;;;;;;9.66;100.00;98290.66;5036404;28;20047;-67
2024/03/29 07:20:56;;;;;;;8.90;5.45;;;;;;;9.43;100.00;98290.78;5053294;28;20131;-68
2024/03/29 07:23:22;;;;;;;9.65;4.60;;;;;;;9.45;100.00;98286.13;5054263;28;20467;-68
2024/03/29 07:26:03;;;;;;;8.23;4.10;;;;;;;9.74;100.00;98272.84;5036766;28;20041;-68
2024/03/29 07:28:29;;;;;;;5.68;3.50;;;;;;;9.78;100.00;98274.09;5060159;28;20067;-68
2024/03/29 07:30:55;;;;;;;8.27;4.40;;;;;;;9.65;100.00;98262.53;5035076;28;20049;-68
2024/03/29 07:33:23;;;;;;;8.00;3.92;;;;;;;9.68;100.00;98294.78;5041749;28;20037;-69
2024/03/29 07:35:49;;;;;;;10.73;4.97;;;;;;;9.40;100.00;98269.13;5028120;28;20045;-68
2024/03/29 07:38:17;;;;;;;14.15;4.65;;;;;;;9.30;100.00;98276.53;5044123;28;20042;-69
2024/03/29 07:40:43;;;;;;;6.43;3.97;;;;;;;9.30;100.00;98265.94;5032669;28;20055;-68
2024/03/29 07:43:09;;;;;;;8.57;4.57;;;;;;;9.24;100.00;98266.66;5059110;28;20132;-67
2024/03/29 07:45:35;;;;;;;7.53;4.65;;;;;;;9.23;100.00;98262.34;5002245;28;20191;-68
2024/03/29 07:48:01;;;;;;;8.70;4.90;;;;;;;9.25;100.00;98258.53;5043092;28;20060;-68
2024/03/29 07:50:26;;;;;;;19.55;6.07;;;;;;;9.15;100.00;98246.59;5050020;28;20052;-68
2024/03/29 07:52:52;;;;;;;14.27;5.15;;;;;;;9.05;100.00;98248.66;5036097;28;20037;-68
2024/03/29 07:55:18;;;;;;;17.88;5.88;;;;;;;9.00;100.00;98261.63;5052708;28;20052;-68
2024/03/29 07:57:46;;;;;;;10.15;5.05;;;;;;;8.81;100.00;98251.56;5052566;28;20507;-68
2024/03/29 08:00:12;;;;;;;11.95;6.03;;;;;;;8.82;100.00;98246.09;5052780;28;20395;-68
2024/03/29 08:02:39;;;;;;;18.48;6.32;;;;;;;8.70;100.00;98244.06;5036093;28;20041;-69
2024/03/29 08:05:06;;;;;;;13.48;5.35;;;;;;;8.71;100.00;98240.41;5036242;28;20159;-69
2024/03/29 08:07:32;;;;;;;9.18;6.10;;;;;;;8.72;100.00;98221.69;5036468;28;20090;-68
2024/03/29 08:09:58;;;;;;;29.95;6.85;;;;;;;8.69;100.00;98237.94;5052087;28;20471;-69
2024/03/29 08:12:25;;;;;;;11.25;5.95;;;;;;;8.63;100.00;98228.06;4991786;28;20129;-68
2024/03/29 08:14:52;;;;;;;9.63;5.82;;;;;;;8.68;100.00;98215.13;5009944;28;20076;-77
2024/03/29 08:17:18;;;;;;;11.85;6.20;;;;;;;8.56;100.00;98230.59;5011965;28;20037;-68
2024/03/29 08:19:43;;;;;;;12.75;5.97;;;;;;;8.64;100.00;98218.31;5041839;28;20048;-69
2024/03/29 08:22:10;;;;;;;8.35;4.93;;;;;;;8.94;100.00;98231.41;5025643;28;20045;-68
2024/03/29 08:24:37;;;;;;;10.70;5.13;;;;;;;8.80;100.00;98228.72;5010741;28;20033;-68
2024/03/29 08:27:03;;;;;;;9.23;5.28;;;;;;;8.80;100.00;98229.56;5028669;28;20049;-67
2024/03/29 08:29:29;;;;;;;11.07;5.88;;;;;;;8.98;100.00;98230.03;5021068;28;20506;-69
2024/03/29 08:31:55;;;;;;;9.05;5.50;;;;;;;9.10;100.00;98249.75;5037749;28;20053;-67
2024/03/29 08:34:21;;;;;;;11.00;4.93;;;;;;;9.01;100.00;98248.19;5034614;28;20037;-69
2024/03/29 08:36:47;;;;;;;15.25;5.47;;;;;;;9.08;100.00;98250.94;5018548;28;20059;-70
2024/03/29 08:39:15;;;;;;;8.73;4.53;;;;;;;9.25;100.00;98247.94;5020361;28;20139;-68
2024/03/29 08:41:44;;;;;;;8.63;4.45;;;;;;;9.38;100.00;98252.59;5028981;28;20050;-69
2024/03/29 08:44:10;;;;;;;7.65;4.82;;;;;;;9.27;100.00;98248.56;5052393;28;20037;-69
2024/03/29 08:46:35;;;;;;;11.15;5.72;;;;;;;8.94;100.00;98225.28;5044072;28;20139;-69
2024/03/29 08:49:01;;;;;;;12.05;5.32;;;;;;;9.03;100.00;98219.72;5019947;28;20032;-69
2024/03/29 08:51:29;;;;;;;10.32;5.10;;;;;;;8.99;100.00;98234.34;5030585;28;20037;-68
2024/03/29 08:53:57;;;;;;;11.45;5.40;;;;;;;8.93;100.00;98218.34;5046459;28;20040;-69
2024/03/29 08:56:24;;;;;;;11.90;5.45;;;;;;;8.99;100.00;98215.81;4976645;28;20073;-69
2024/03/29 08:58:51;;;;;;;11.07;5.47;;;;;;;8.93;100.00;98218.34;5004380;28;20049;-69
2024/03/29 09:01:18;;;;;;;7.28;4.75;;;;;;;9.10;100.00;98217.16;4975240;28;20046;-68
2024/03/29 09:03:45;;;;;;;8.05;4.90;;;;;;;9.21;100.00;98214.06;4939150;28;20082;-68
2024/03/29 09:06:11;;;;;;;9.90;4.70;;;;;;;9.32;100.00;98214.41;4939232;28;20113;-69
2024/03/29 09:08:36;;;;;;;15.23;5.30;;;;;;;9.38;100.00;98208.38;4955604;28;20050;-68
2024/03/29 09:11:03;;;;;;;10.05;5.00;;;;;;;9.40;100.00;98206.38;4971725;28;20120;-69
2024/03/29 09:13:30;;;;;;;6.93;5.18;;;;;;;9.61;100.00;98224.94;4955607;28;20055;-68
2024/03/29 09:15:56;;;;;;;7.40;4.85;;;;;;;9.63;100.00;98212.34;4955416;28;20054;-69
2024/03/29 09:18:26;;;;;;;10.13;5.47;;;;;;;9.63;100.00;98211.50;4971467;28;20133;-69
2024/03/29 09:21:00;;;;;;;7.00;4.38;;;;;;;9.85;100.00;98208.72;4955737;28;20051;-69
2024/03/29 09:23:28;;;;;;;8.38;5.45;;;;;;;9.72;100.00;98211.22;4939461;28;20093;-69
2024/03/29 09:25:56;;;;;;;11.05;5.78;;;;;;;9.86;100.00;98212.19;4939339;28;20473;-69
2024/03/29 09:28:23;;;;;;;7.18;4.38;;;;;;;10.04;100.00;98217.91;4923430;28;20121;-69
2024/03/29 09:30:50;;;;;;;9.88;4.90;;;;;;;10.07;100.00;98213.03;4955565;28;20440;-69
2024/03/29 09:33:17;;;;;;;8.90;5.53;;;;;;;10.00;100.00;98222.75;4950444;28;20136;-69
2024/03/29 09:35:44;;;;;;;11.60;6.15;;;;;;;9.66;100.00;98221.75;5029662;28;20135;-69
2024/03/29 09:38:09;;;;;;;9.65;5.80;;;;;;;9.52;100.00;98204.88;5034405;28;20059;-69
2024/03/29 09:40:35;;;;;;;10.40;6.25;;;;;;;9.47;100.00;98222.34;5050968;28;20382;-68
2024/03/29 09:43:02;;;;;;;11.90;5.75;;;;;;;9.38;100.00;98216.31;5034456;28;20040;-69
2024/03/29 09:45:35;;;;;;;12.20;6.38;;;;;;;9.26;100.00;98233.69;5018266;28;20091;-69
2024/03/29 09:48:03;;;;;;;11.73;6.30;;;;;;;9.26;100.00;98207.19;5028397;28;20041;-70
2024/03/29 09:50:30;;;;;;;13.77;7.68;;;;;;;9.12;100.00;98204.56;5025197;28;20106;-70
2024/03/29 09:52:58;;;;;;;18.02;6.45;;;;;;;9.32;100.00;98200.31;5007074;28;20076;-69
2024/03/29 09:55:24;;;;;;;13.10;7.07;;;;;;;9.27;100.00;98214.13;5033710;28;20033;-69
2024/03/29 09:57:52;;;;;;;11.43;7.43;;;;;;;9.17;100.00;98210.94;4996465;28;20072;-69
2024/03/29 10:00:19;;;;;;;11.70;6.68;;;;;;;9.27;100.00;98208.03;4958773;28;20060;-68
2024/03/29 10:02:48;;;;;;;14.07;6.82;;;;;;;9.49;100.00;98210.53;4992911;28;20045;-69
2024/03/29 10:05:14;;;;;;;10.70;6.32;;;;;;;9.67;100.00;98197.69;4977111;28;20065;-69
2024/03/29 10:07:41;;;;;;;9.48;5.53;;;;;;;9.95;100.00;98200.44;5010132;28;20068;-69
2024/03/29 10:10:07;;;;;;;11.27;6.05;;;;;;;9.95;100.00;98211.88;4961556;28;20050;-69
2024/03/29 10:12:33;;;;;;;12.75;6.72;;;;;;;9.94;100.00;98201.47;5009072;28;20046;-69
2024/03/29 10:15:08;;;;;;;12.00;6.05;;;;;;;10.11;100.00;98198.41;4977018;28;20065;-69
2024/03/29 10:17:37;;;;;;;10.70;6.65;;;;;;;10.08;100.00;98193.50;4976113;28;20149;-69
2024/03/29 10:20:04;;;;;;;19.13;7.22;;;;;;;10.16;100.00;98172.09;4976979;28;20089;-71
2024/03/29 10:22:43;;;;;;;16.23;8.52;;;;;;;10.62;100.00;98190.25;4993039;28;20133;-70
2024/03/29 10:25:10;;;;;;;11.60;6.72;;;;;;;11.19;100.00;98188.16;4993854;28;20049;-70
2024/03/29 10:27:37;;;;;;;18.35;6.90;;;;;;;11.38;100.00;98185.59;4977035;28;20508;-69
2024/03/29 10:30:04;;;;;;;11.52;6.22;;;;;;;11.43;100.00;98187.66;4989893;28;20588;-69
2024/03/29 10:32:32;;;;;;;12.95;7.82;;;;;;;10.96;100.00;98195.59;5030006;28;20045;-68
2024/03/29 10:35:02;;;;;;;13.00;6.90;;;;;;;11.05;100.00;98178.47;5012907;28;20137;-68
2024/03/29 10:37:38;;;;;;;11.10;6.82;;;;;;;10.89;100.00;98161.00;5031556;28;20081;-68
2024/03/29 10:40:09;;;;;;;16.85;6.95;;;;;;;11.05;100.00;98152.75;5014936;28;20056;-68
2024/03/29 10:42:38;;;;;;;13.27;7.43;;;;;;;11.33;100.00;98148.13;5030108;28;20048;-68
2024/03/29 10:45:05;;;;;;;15.80;7.93;;;;;;;13.07;100.00;98165.47;5030325;28;20520;-70
2024/03/29 10:47:32;;;;;;;15.60;7.28;;;;;;;13.24;100.00;98183.50;5009188;28;20408;-68
2024/03/29 10:50:00;;;;;;;12.23;6.80;;;;;;;13.39;100.00;98162.72;4993279;28;20088;-71
2024/03/29 10:52:26;;;;;;;13.30;6.78;;;;;;;13.07;100.00;98168.97;4976902;28;20057;-69
2024/03/29 10:54:54;;;;;;;11.57;6.05;;;;;;;13.26;100.00;98154.78;4960822;28;20459;-74
2024/03/29 10:57:24;;;;;;;13.30;6.75;;;;;;;13.26;100.00;98146.78;4990784;28;20089;-70
2024/03/29 11:00:04;;;;;;;21.30;7.25;;;;;;;13.27;99.05;98145.75;5004016;28;20045;-68
2024/03/29 11:03:09;;;;;;;;;;;;;;;13.04;100.00;98155.25;4995243;28;20387;-69
2024/03/29 11:05:37;;;;;;;10.30;6.05;;;;;;;12.60;100.00;98145.28;4947827;29;19925;-67
2024/03/29 11:08:04;;;;;;;9.95;5.55;;;;;;;12.82;100.00;98151.19;4927223;28;20061;-68
2024/03/29 11:10:43;;;;;;;11.48;6.05;;;;;;;13.09;100.00;98139.44;4925636;28;20050;-68
2024/03/29 11:13:14;;;;;;;14.25;6.78;;;;;;;12.76;100.00;98136.03;4962546;28;20192;-69
2024/03/29 11:15:44;;;;;;;11.70;6.00;;;;;;;12.87;100.00;98136.19;4995479;28;20410;-71
2024/03/29 11:18:10;;;;;;;9.70;5.45;;;;;;;13.07;100.00;98138.84;4980175;28;20037;-72
2024/03/29 11:20:40;;;;;;;9.27;5.03;;;;;;;13.43;100.00;98136.44;5029070;28;20037;-68
2024/03/29 11:23:10;;;;;;;9.45;6.05;;;;;;;13.99;99.42;98136.53;5029046;28;20440;-70
2024/03/29 11:25:44;;;;;;;9.15;5.88;;;;;;;14.43;94.28;98131.91;5019223;28;20049;-69
2024/03/29 11:28:31;;;;;;;8.75;5.10;;;;;;;15.54;86.17;98135.25;5032636;28;20151;-68
2024/03/29 11:31:08;;;;;;;13.55;6.50;;;;;;;16.87;75.36;98126.59;5033474;28;20132;-69
2024/03/29 11:33:36;;;;;;;16.20;7.75;;;;;;;17.74;62.44;98137.84;5027767;28;20124;-69